Sigas Ingrid — VRCQ6 — position and weather

sailwx.info

Track history (hours):
 
Tides and Currents Weather Stations Pressure Air Temp Water Temp Dewpoint Dewpoint Depression Visibility Wind Speed Wind Dir Waves Ship Positions

Sigas Ingrid

Last reported at 2014-Oct-30 22:17 UTC. Time now 2014-Oct-31 12:14 UTC.
Position N 46°14' E 030°44'.

Length 100 m; draft 4.9 m.

Type: Ship (hazmat cat B). MMSI: 477658800.

Date/timePositionNaut miles runAvg speedWind from/ knotsBaromVisibWave heightAir tempDewpointWater temp
2014-Oct-30 22:17N 46°14' E 030°44'0 0.0
2014-Oct-30 15:25N 46°14' E 030°43'0 0.0
2014-Oct-30 14:24N 46°14' E 030°43'0 0.0
2014-Oct-30 13:07N 46°14' E 030°43'0 0.0
2014-Oct-30 12:18N 46°14' E 030°43'0 0.0
2014-Oct-30 00:15N 46°14' E 030°44'0 0.0
2014-Oct-29 23:30N 46°14' E 030°44'0 0.0
2014-Oct-29 22:15N 46°14' E 030°44'1 2.0
2014-Oct-29 21:33N 46°13' E 030°44'4 4.1
2014-Oct-29 20:30N 46°09' E 030°47'  
2014-Oct-21 20:33N 42°10' E 029°26'1211.9
2014-Oct-21 19:33N 41°58' E 029°22'1212.1
2014-Oct-21 18:34N 41°46' E 029°19'2412.1
2014-Oct-21 16:34N 41°22' E 029°14'23 9.5
2014-Oct-21 14:07N 41°01' E 029°00'6 9.9
2014-Oct-21 13:33N 40°56' E 028°59'8 7.1
2014-Oct-21 12:28N 40°50' E 028°53'1 0.6
2014-Oct-21 11:34N 40°49' E 028°53'0 0.5
2014-Oct-21 10:31N 40°49' E 028°53'0 0.3
2014-Oct-21 09:33N 40°48' E 028°53'0 0.2
2014-Oct-21 08:28N 40°48' E 028°53'0 0.2
2014-Oct-21 07:20N 40°48' E 028°53'0 0.1
2014-Oct-21 06:34N 40°48' E 028°54'0 0.0
2014-Oct-21 05:34N 40°48' E 028°54'3 2.6
2014-Oct-21 04:33N 40°51' E 028°53'1 0.8
2014-Oct-21 03:33N 40°50' E 028°53'1 0.7
2014-Oct-21 02:32N 40°49' E 028°53'1 0.7
2014-Oct-21 01:26N 40°48' E 028°53'0 0.4
2014-Oct-21 00:33N 40°48' E 028°53'0 0.2
2014-Oct-20 23:34N 40°48' E 028°53'0 0.1
2014-Oct-20 22:34N 40°48' E 028°53'  
Track history (hours):
 
Tides and Currents Weather Stations Pressure Air Temp Water Temp Dewpoint Dewpoint Depression Visibility Wind Speed Wind Dir Waves Ship Positions

Sigas Ingrid

Last reported at 2014-Oct-30 22:17 UTC. Time now 2014-Oct-31 12:14 UTC.
Position N 46°14' E 030°44'.

Length 100 m; draft 4.9 m.

Type: Ship (hazmat cat B). MMSI: 477658800.

Date/timePositionNaut miles runAvg speedWind from/ knotsBaromVisibWave heightAir tempDewpointWater temp
2014-Oct-30 22:17N 46°14' E 030°44'0 0.0
2014-Oct-30 15:25N 46°14' E 030°43'0 0.0
2014-Oct-30 14:24N 46°14' E 030°43'0 0.0
2014-Oct-30 13:07N 46°14' E 030°43'0 0.0
2014-Oct-30 12:18N 46°14' E 030°43'0 0.0
2014-Oct-30 00:15N 46°14' E 030°44'0 0.0
2014-Oct-29 23:30N 46°14' E 030°44'0 0.0
2014-Oct-29 22:15N 46°14' E 030°44'1 2.0
2014-Oct-29 21:33N 46°13' E 030°44'4 4.1
2014-Oct-29 20:30N 46°09' E 030°47'  
2014-Oct-21 20:33N 42°10' E 029°26'1211.9
2014-Oct-21 19:33N 41°58' E 029°22'1212.1
2014-Oct-21 18:34N 41°46' E 029°19'2412.1
2014-Oct-21 16:34N 41°22' E 029°14'23 9.5
2014-Oct-21 14:07N 41°01' E 029°00'6 9.9
2014-Oct-21 13:33N 40°56' E 028°59'8 7.1
2014-Oct-21 12:28N 40°50' E 028°53'1 0.6
2014-Oct-21 11:34N 40°49' E 028°53'0 0.5
2014-Oct-21 10:31N 40°49' E 028°53'0 0.3
2014-Oct-21 09:33N 40°48' E 028°53'0 0.2
2014-Oct-21 08:28N 40°48' E 028°53'0 0.2
2014-Oct-21 07:20N 40°48' E 028°53'0 0.1
2014-Oct-21 06:34N 40°48' E 028°54'0 0.0
2014-Oct-21 05:34N 40°48' E 028°54'3 2.6
2014-Oct-21 04:33N 40°51' E 028°53'1 0.8
2014-Oct-21 03:33N 40°50' E 028°53'1 0.7
2014-Oct-21 02:32N 40°49' E 028°53'1 0.7
2014-Oct-21 01:26N 40°48' E 028°53'0 0.4
2014-Oct-21 00:33N 40°48' E 028°53'0 0.2
2014-Oct-20 23:34N 40°48' E 028°53'0 0.1
2014-Oct-20 22:34N 40°48' E 028°53'  

Dump ship's entire track history